createdAt,value
2022-08-17T00:00:09.037Z,99267.91
2022-08-17T00:03:01.850Z,99258.81
2022-08-17T00:05:31.916Z,99256.25
2022-08-17T00:07:59.626Z,99263.00
2022-08-17T00:10:28.767Z,99254.06
2022-08-17T00:13:00.481Z,99252.56
2022-08-17T00:15:28.206Z,99261.34
2022-08-17T00:17:55.842Z,99255.44
2022-08-17T00:20:30.440Z,99261.34
2022-08-17T00:23:13.360Z,99260.50
2022-08-17T00:25:41.707Z,99257.78
2022-08-17T00:28:09.053Z,99262.00
2022-08-17T00:30:51.278Z,99266.41
2022-08-17T00:33:24.693Z,99268.22
2022-08-17T00:35:52.642Z,99260.13
2022-08-17T00:38:21.550Z,99265.12
2022-08-17T00:40:52.089Z,99271.19
2022-08-17T00:43:30.979Z,99265.88
2022-08-17T00:45:59.185Z,99262.31
2022-08-17T00:48:30.000Z,99270.13
2022-08-17T00:50:59.494Z,99260.81
2022-08-17T00:53:30.267Z,99272.78
2022-08-17T00:55:58.429Z,99264.84
2022-08-17T00:58:36.369Z,99265.84
2022-08-17T01:01:05.006Z,99261.44
2022-08-17T01:03:33.362Z,99263.84
2022-08-17T01:06:00.770Z,99268.56
2022-08-17T01:08:29.334Z,99265.81
2022-08-17T01:11:01.860Z,99275.91
2022-08-17T01:13:41.734Z,99274.63
2022-08-17T01:16:12.559Z,99274.25
2022-08-17T01:18:40.555Z,99283.00
2022-08-17T01:21:10.593Z,99291.97
2022-08-17T01:23:38.496Z,99286.69
2022-08-17T01:26:06.536Z,99288.91
2022-08-17T01:28:53.394Z,99283.69
2022-08-17T01:31:22.865Z,99290.41
2022-08-17T01:33:50.198Z,99293.47
2022-08-17T01:36:17.626Z,99283.78
2022-08-17T01:38:45.236Z,99294.63
2022-08-17T01:41:14.230Z,99294.13
2022-08-17T01:43:44.063Z,99292.19
2022-08-17T01:46:15.563Z,99292.91
2022-08-17T01:48:43.824Z,99293.56
2022-08-17T01:51:11.071Z,99293.56
2022-08-17T01:53:41.596Z,99292.37
2022-08-17T01:56:10.483Z,99295.78
2022-08-17T01:58:38.978Z,99299.06
2022-08-17T02:01:10.126Z,99290.03
2022-08-17T02:03:38.173Z,99294.13
2022-08-17T02:06:06.232Z,99293.44
2022-08-17T02:09:02.340Z,99296.00
2022-08-17T02:11:34.955Z,99294.59
2022-08-17T02:14:04.061Z,99291.59
2022-08-17T02:16:37.431Z,99286.72
2022-08-17T02:19:06.931Z,99285.78
2022-08-17T02:21:35.388Z,99281.47
2022-08-17T02:24:03.153Z,99281.50
2022-08-17T02:26:30.843Z,99282.78
2022-08-17T02:28:58.225Z,99275.25
2022-08-17T02:31:26.104Z,99281.06
2022-08-17T02:34:00.383Z,99278.31
2022-08-17T02:36:33.332Z,99281.41
2022-08-17T02:39:02.071Z,99279.44
2022-08-17T02:41:29.950Z,99286.44
2022-08-17T02:43:57.642Z,99286.03
2022-08-17T02:46:25.633Z,99284.84
2022-08-17T02:48:53.501Z,99278.25
2022-08-17T02:51:20.875Z,99279.63
2022-08-17T02:53:48.561Z,99276.97
2022-08-17T02:56:20.720Z,99282.63
2022-08-17T02:58:49.249Z,99275.19
2022-08-17T03:01:16.795Z,99279.78
2022-08-17T03:03:44.363Z,99279.50
2022-08-17T03:06:12.642Z,99280.94
2022-08-17T03:08:41.326Z,99281.78
2022-08-17T03:11:16.685Z,99288.56
2022-08-17T03:13:44.443Z,99290.06
2022-08-17T03:16:11.869Z,99289.12
2022-08-17T03:18:39.253Z,99286.16
2022-08-17T03:21:08.634Z,99291.81
2022-08-17T03:23:41.164Z,99287.34
2022-08-17T03:26:15.598Z,99289.25
2022-08-17T03:28:43.759Z,99287.94
2022-08-17T03:31:11.367Z,99299.16
2022-08-17T03:33:39.000Z,99295.03
2022-08-17T03:36:07.249Z,99296.19
2022-08-17T03:38:38.918Z,99294.34
2022-08-17T03:41:07.048Z,99296.75
2022-08-17T03:43:34.872Z,99299.00
2022-08-17T03:46:27.883Z,99296.72
2022-08-17T03:49:16.369Z,99302.31
2022-08-17T03:52:02.581Z,99305.16
2022-08-17T03:54:48.881Z,99307.41
2022-08-17T03:57:16.763Z,99303.03
2022-08-17T03:59:45.098Z,99305.94
2022-08-17T04:02:15.628Z,99311.19
2022-08-17T04:04:43.526Z,99312.88
2022-08-17T04:07:11.029Z,99312.03
2022-08-17T04:09:38.777Z,99308.13
2022-08-17T04:12:07.657Z,99311.03
2022-08-17T04:14:53.169Z,99314.09
2022-08-17T04:17:22.882Z,99313.97
2022-08-17T04:19:50.249Z,99320.09
2022-08-17T04:22:33.006Z,99320.84
2022-08-17T04:25:07.584Z,99318.75
2022-08-17T04:27:35.978Z,99327.03
2022-08-17T04:30:04.642Z,99333.22
2022-08-17T04:33:00.698Z,99325.34
2022-08-17T04:35:24.525Z,99326.34
2022-08-17T04:37:55.570Z,99327.34
2022-08-17T04:40:45.891Z,99329.87
2022-08-17T04:43:18.700Z,99325.34
2022-08-17T04:45:51.254Z,99322.97
2022-08-17T04:48:35.993Z,99329.78
2022-08-17T04:51:06.300Z,99325.34
2022-08-17T04:53:34.426Z,99332.38
2022-08-17T04:56:02.097Z,99336.50
2022-08-17T04:58:31.333Z,99334.22
2022-08-17T05:00:59.124Z,99343.03
2022-08-17T05:03:26.877Z,99341.00
2022-08-17T05:05:55.425Z,99345.22
2022-08-17T05:08:23.182Z,99350.91
2022-08-17T05:10:50.898Z,99346.44
2022-08-17T05:13:20.164Z,99351.00
2022-08-17T05:15:52.537Z,99347.53
2022-08-17T05:18:20.278Z,99354.63
2022-08-17T05:20:47.612Z,99361.37
2022-08-17T05:23:17.736Z,99357.19
2022-08-17T05:25:47.898Z,99349.94
2022-08-17T05:28:16.944Z,99348.22
2022-08-17T05:30:53.686Z,99348.72
2022-08-17T05:33:24.317Z,99352.44
2022-08-17T05:35:55.459Z,99348.41
2022-08-17T05:38:24.365Z,99350.53
2022-08-17T05:40:58.332Z,99346.66
2022-08-17T05:43:28.422Z,99351.94
2022-08-17T05:45:59.576Z,99350.16
2022-08-17T05:48:39.663Z,99351.25
2022-08-17T05:51:44.646Z,99352.81
2022-08-17T05:54:25.755Z,99354.03
2022-08-17T05:57:00.645Z,99352.25
2022-08-17T05:59:42.780Z,99348.69
2022-08-17T06:02:35.524Z,99350.06
2022-08-17T06:05:20.045Z,99348.97
2022-08-17T06:07:57.312Z,99348.94
2022-08-17T06:10:25.464Z,99349.66
2022-08-17T06:13:08.559Z,99352.19
2022-08-17T06:15:43.727Z,99341.44
2022-08-17T06:18:17.255Z,99356.28
2022-08-17T06:21:03.876Z,99353.78
2022-08-17T06:23:36.620Z,99344.13
2022-08-17T06:26:15.117Z,99340.84
2022-08-17T06:31:49.143Z,99346.34
2022-08-17T06:34:22.491Z,99347.44
2022-08-17T06:36:53.247Z,99356.69
2022-08-17T06:39:25.102Z,99350.63
2022-08-17T06:42:00.875Z,99349.53
2022-08-17T06:44:43.463Z,99353.44
2022-08-17T06:47:28.495Z,99360.09
2022-08-17T06:49:59.483Z,99362.72
2022-08-17T06:52:42.315Z,99359.03
2022-08-17T06:55:35.817Z,99368.78
2022-08-17T06:58:16.423Z,99363.41
2022-08-17T07:00:46.170Z,99364.06
2022-08-17T07:03:33.570Z,99360.50
2022-08-17T07:06:03.806Z,99367.75
2022-08-17T07:08:43.054Z,99356.22
2022-08-17T07:11:15.968Z,99361.69
2022-08-17T07:13:57.389Z,99358.19
2022-08-17T07:16:30.642Z,99361.09
2022-08-17T07:19:00.084Z,99361.47
2022-08-17T07:21:28.432Z,99356.09
2022-08-17T07:24:01.638Z,99364.84
2022-08-17T07:26:33.500Z,99358.56
2022-08-17T07:29:01.939Z,99353.53
2022-08-17T07:31:37.479Z,99352.44
2022-08-17T07:34:11.310Z,99346.69
2022-08-17T07:36:39.556Z,99346.09
2022-08-17T07:39:12.697Z,99354.41
2022-08-17T07:41:57.663Z,99352.47
2022-08-17T07:44:31.215Z,99349.50
2022-08-17T07:47:19.813Z,99351.69
2022-08-17T07:49:47.584Z,99340.78
2022-08-17T07:52:50.895Z,99349.44
2022-08-17T07:55:35.067Z,99354.19
2022-08-17T07:58:06.698Z,99352.06
2022-08-17T08:00:34.554Z,99351.06
2022-08-17T08:03:15.562Z,99349.47
2022-08-17T08:05:57.030Z,99353.28
2022-08-17T08:08:31.262Z,99352.06
2022-08-17T08:11:09.738Z,99349.78
2022-08-17T08:13:44.041Z,99351.47
2022-08-17T08:16:23.444Z,99342.72
2022-08-17T08:21:35.948Z,99338.59
2022-08-17T08:24:15.540Z,99344.03
2022-08-17T08:26:50.461Z,99345.47
2022-08-17T08:29:47.452Z,99345.09
2022-08-17T08:32:25.576Z,99338.91
2022-08-17T08:35:16.498Z,99336.84
2022-08-17T08:40:29.929Z,99334.88
2022-08-17T08:43:10.485Z,99336.50
2022-08-17T08:45:58.847Z,99333.31
2022-08-17T08:48:58.037Z,99328.16
2022-08-17T08:51:54.497Z,99329.72
2022-08-17T08:54:28.391Z,99330.09
2022-08-17T08:57:23.236Z,99332.22
2022-08-17T08:59:57.697Z,99328.97
2022-08-17T09:02:26.819Z,99337.06
2022-08-17T09:05:14.792Z,99334.25
2022-08-17T09:07:56.277Z,99324.59
2022-08-17T09:10:31.717Z,99327.91
2022-08-17T09:13:10.309Z,99335.84
2022-08-17T09:15:46.700Z,99337.84
2022-08-17T09:19:00.093Z,99336.28
2022-08-17T09:21:18.085Z,99341.06
2022-08-17T09:24:00.604Z,99332.66
2022-08-17T09:26:30.529Z,99343.31
2022-08-17T09:29:01.599Z,99341.62
2022-08-17T09:31:48.821Z,99339.56
2022-08-17T09:34:44.654Z,99336.38
2022-08-17T09:37:18.455Z,99346.75
2022-08-17T09:39:58.922Z,99331.50
2022-08-17T09:42:26.609Z,99331.91
2022-08-17T09:45:00.684Z,99327.25
2022-08-17T09:47:30.867Z,99324.25
2022-08-17T09:50:12.596Z,99321.97
2022-08-17T09:53:01.603Z,99314.56
2022-08-17T09:55:43.638Z,99320.19
2022-08-17T09:58:30.684Z,99324.75
2022-08-17T10:01:17.247Z,99323.00
2022-08-17T10:03:57.405Z,99331.28
2022-08-17T10:06:27.794Z,99329.66
2022-08-17T10:08:58.349Z,99333.06
2022-08-17T10:11:52.811Z,99325.38
2022-08-17T10:14:43.954Z,99328.16
2022-08-17T10:17:16.107Z,99323.47
2022-08-17T10:20:08.188Z,99324.28
2022-08-17T10:23:00.453Z,99326.62
2022-08-17T10:25:55.040Z,99315.91
2022-08-17T10:28:29.711Z,99317.88
2022-08-17T10:34:26.808Z,99313.19
2022-08-17T10:37:07.435Z,99312.00
2022-08-17T10:39:51.932Z,99306.06
2022-08-17T10:42:45.553Z,99310.94
2022-08-17T10:45:21.011Z,99310.78
2022-08-17T10:48:05.063Z,99312.91
2022-08-17T10:50:50.590Z,99317.97
2022-08-17T10:53:33.824Z,99320.66
2022-08-17T10:56:15.559Z,99309.25
2022-08-17T10:58:54.075Z,99305.66
2022-08-17T11:01:35.698Z,99298.38
2022-08-17T11:04:21.324Z,99299.34
2022-08-17T11:07:02.555Z,99293.25
2022-08-17T11:09:46.776Z,99293.94
2022-08-17T11:12:16.682Z,99287.66
2022-08-17T11:14:53.895Z,99292.19
2022-08-17T11:17:37.038Z,99297.88
2022-08-17T11:20:12.857Z,99308.13
2022-08-17T11:23:04.574Z,99304.41
2022-08-17T11:25:40.659Z,99295.03
2022-08-17T11:28:20.621Z,99290.09
2022-08-17T11:30:53.527Z,99287.25
2022-08-17T11:33:38.168Z,99290.34
2022-08-17T11:39:52.466Z,99279.81
2022-08-17T11:42:25.734Z,99278.19
2022-08-17T11:45:01.647Z,99279.47
2022-08-17T11:48:25.956Z,99280.41
2022-08-17T11:51:23.228Z,99274.84
2022-08-17T11:56:38.528Z,99274.66
2022-08-17T11:59:27.661Z,99266.59
2022-08-17T12:02:07.585Z,99274.12
2022-08-17T12:04:36.314Z,99257.97
2022-08-17T12:07:11.597Z,99252.94
2022-08-17T12:09:42.562Z,99256.44
2022-08-17T12:12:23.583Z,99260.41
2022-08-17T12:15:11.387Z,99261.53
2022-08-17T12:17:47.527Z,99246.09
2022-08-17T12:20:29.336Z,99249.19
2022-08-17T12:23:06.767Z,99243.25
2022-08-17T12:25:37.551Z,99245.06
2022-08-17T12:28:07.714Z,99244.44
2022-08-17T12:30:36.808Z,99240.53
2022-08-17T12:33:04.581Z,99226.38
2022-08-17T12:35:39.777Z,99240.44
2022-08-17T12:38:32.046Z,99236.81
2022-08-17T12:41:22.531Z,99242.12
2022-08-17T12:44:19.603Z,99229.63
2022-08-17T12:47:02.784Z,99235.72
2022-08-17T12:49:39.589Z,99236.50
2022-08-17T12:52:17.236Z,99235.47
2022-08-17T12:54:54.533Z,99235.75
2022-08-17T12:57:27.544Z,99229.97
2022-08-17T12:59:59.127Z,99224.34
2022-08-17T13:02:39.703Z,99237.69
2022-08-17T13:05:09.751Z,99236.47
2022-08-17T13:07:46.660Z,99232.78
2022-08-17T13:10:16.615Z,99225.44
2022-08-17T13:13:00.999Z,99219.84
2022-08-17T13:15:44.538Z,99223.50
2022-08-17T13:18:36.706Z,99230.41
2022-08-17T13:21:06.789Z,99223.09
2022-08-17T13:23:53.602Z,99219.56
2022-08-17T13:26:30.611Z,99231.06
2022-08-17T13:29:01.778Z,99226.69
2022-08-17T13:34:18.857Z,99211.62
2022-08-17T13:36:51.413Z,99211.66
2022-08-17T13:39:23.886Z,99218.22
2022-08-17T13:44:38.577Z,99215.81
2022-08-17T13:47:17.017Z,99219.75
2022-08-17T13:49:58.755Z,99221.16
2022-08-17T13:52:41.567Z,99216.19
2022-08-17T13:55:21.568Z,99212.16
2022-08-17T13:57:51.084Z,99208.78
2022-08-17T14:00:34.163Z,99218.44
2022-08-17T14:03:08.813Z,99218.69
2022-08-17T14:05:42.573Z,99218.47
2022-08-17T14:08:11.041Z,99215.41
2022-08-17T14:10:41.582Z,99210.97
2022-08-17T14:13:15.880Z,99211.03
2022-08-17T14:15:57.701Z,99195.09
2022-08-17T14:18:55.768Z,99208.19
2022-08-17T14:21:24.191Z,99201.31
2022-08-17T14:23:54.538Z,99206.59
2022-08-17T14:26:24.650Z,99199.75
2022-08-17T14:28:54.589Z,99214.72
2022-08-17T14:34:03.759Z,99214.03
2022-08-17T14:36:33.022Z,99210.09
2022-08-17T14:39:00.512Z,99206.28
2022-08-17T14:41:29.133Z,99206.56
2022-08-17T14:43:57.735Z,99206.94
2022-08-17T14:46:27.912Z,99211.38
2022-08-17T14:49:07.746Z,99204.06
2022-08-17T14:51:36.549Z,99203.47
2022-08-17T14:54:33.599Z,99194.47
2022-08-17T14:57:32.892Z,99201.28
2022-08-17T15:00:10.645Z,99201.50
2022-08-17T15:02:51.068Z,99194.16
2022-08-17T15:05:24.932Z,99193.53
2022-08-17T15:07:56.110Z,99191.06
2022-08-17T15:10:31.689Z,99193.72
2022-08-17T15:13:01.596Z,99195.22
2022-08-17T15:15:29.565Z,99192.41
2022-08-17T15:18:01.960Z,99193.72
2022-08-17T15:20:39.742Z,99196.38
2022-08-17T15:23:15.531Z,99202.75
2022-08-17T15:25:49.852Z,99198.63
2022-08-17T15:28:17.786Z,99198.28
2022-08-17T15:30:46.187Z,99213.56
2022-08-17T15:33:25.757Z,99204.53
2022-08-17T15:35:55.737Z,99198.41
2022-08-17T15:38:25.043Z,99199.44
2022-08-17T15:40:58.635Z,99198.31
2022-08-17T15:43:31.286Z,99194.19
2022-08-17T15:46:07.558Z,99198.28
2022-08-17T15:48:42.743Z,99206.34
2022-08-17T15:51:12.530Z,99204.28
2022-08-17T15:53:53.869Z,99204.41
2022-08-17T15:56:26.206Z,99217.31
2022-08-17T15:58:56.668Z,99214.00
2022-08-17T16:02:23.214Z,99210.66
2022-08-17T16:04:30.401Z,99209.31
2022-08-17T16:07:01.863Z,99215.59
2022-08-17T16:09:30.143Z,99211.84
2022-08-17T16:12:17.632Z,99205.81
2022-08-17T16:14:55.838Z,99209.72
2022-08-17T16:17:39.223Z,99202.84
2022-08-17T16:20:19.609Z,99204.91
2022-08-17T16:22:49.122Z,99212.69
2022-08-17T16:25:20.983Z,99206.59
2022-08-17T16:27:55.649Z,99209.81
2022-08-17T16:30:31.653Z,99209.34
2022-08-17T16:33:00.994Z,99206.84
2022-08-17T16:35:31.638Z,99200.59
2022-08-17T16:37:59.268Z,99203.41
2022-08-17T16:40:31.311Z,99201.69
2022-08-17T16:43:10.650Z,99208.97
2022-08-17T16:45:52.108Z,99204.56
2022-08-17T16:48:29.817Z,99194.50
2022-08-17T16:51:04.121Z,99196.06
2022-08-17T16:53:34.063Z,99206.22
2022-08-17T16:56:02.152Z,99203.13
2022-08-17T16:58:31.713Z,99204.56
2022-08-17T17:01:00.048Z,99209.03
2022-08-17T17:03:29.841Z,99205.22
2022-08-17T17:06:06.371Z,99206.44
2022-08-17T17:11:26.659Z,99201.78
2022-08-17T17:13:58.619Z,99206.50
2022-08-17T17:16:30.873Z,99209.09
2022-08-17T17:19:05.816Z,99208.37
2022-08-17T17:21:47.095Z,99211.13
2022-08-17T17:24:28.925Z,99218.16
2022-08-17T17:27:07.294Z,99224.97
2022-08-17T17:29:48.163Z,99221.91
2022-08-17T17:32:38.235Z,99228.72
2022-08-17T17:35:14.595Z,99233.38
2022-08-17T17:37:43.514Z,99225.19
2022-08-17T17:40:24.883Z,99229.66
2022-08-17T17:43:09.468Z,99238.13
2022-08-17T17:46:27.493Z,99243.72
2022-08-17T17:48:58.816Z,99241.81
2022-08-17T17:52:09.417Z,99247.59
2022-08-17T17:54:39.873Z,99252.06
2022-08-17T18:00:04.603Z,99260.34
2022-08-17T18:02:52.012Z,99264.88
2022-08-17T18:08:39.072Z,99259.41
2022-08-17T18:11:24.189Z,99268.72
2022-08-17T18:16:56.687Z,99283.63
2022-08-17T18:19:29.674Z,99291.84
2022-08-17T18:22:19.904Z,99280.31
2022-08-17T18:24:51.670Z,99292.09
2022-08-17T18:27:23.378Z,99298.25
2022-08-17T18:30:09.381Z,99298.66
2022-08-17T18:32:40.081Z,99299.09
2022-08-17T18:35:12.623Z,99296.84
2022-08-17T18:37:52.550Z,99305.28
2022-08-17T18:40:27.410Z,99303.16
2022-08-17T18:42:57.907Z,99310.56
2022-08-17T18:45:41.774Z,99308.69
2022-08-17T18:48:20.199Z,99315.81
2022-08-17T18:53:41.901Z,99309.91
2022-08-17T18:56:27.652Z,99326.88
2022-08-17T18:59:14.662Z,99314.09
2022-08-17T19:01:53.228Z,99320.72
2022-08-17T19:04:36.659Z,99316.22
2022-08-17T19:07:28.778Z,99319.41
2022-08-17T19:13:01.710Z,99327.03
2022-08-17T19:15:45.679Z,99327.69
2022-08-17T19:18:43.056Z,99332.75
2022-08-17T19:21:24.758Z,99326.91
2022-08-17T19:24:06.243Z,99325.63
2022-08-17T19:26:54.224Z,99328.78
2022-08-17T19:29:50.430Z,99325.69
2022-08-17T19:37:57.692Z,99334.84
2022-08-17T19:43:32.047Z,99335.16
2022-08-17T19:46:06.174Z,99335.09
2022-08-17T19:48:37.610Z,99338.94
2022-08-17T19:51:28.597Z,99334.88
2022-08-17T19:54:07.353Z,99334.50
2022-08-17T19:56:42.937Z,99338.56
2022-08-17T19:59:21.863Z,99334.62
2022-08-17T20:04:42.651Z,99338.25
2022-08-17T20:07:25.872Z,99333.06
2022-08-17T20:10:04.751Z,99326.88
2022-08-17T20:12:42.943Z,99329.69
2022-08-17T20:17:58.361Z,99332.56
2022-08-17T20:20:33.437Z,99327.75
2022-08-17T20:23:11.876Z,99328.13
2022-08-17T20:26:19.863Z,99330.50
2022-08-17T20:29:19.866Z,99334.03
2022-08-17T20:32:17.633Z,99332.53
2022-08-17T20:34:45.910Z,99331.59
2022-08-17T20:37:28.505Z,99337.94
2022-08-17T20:39:56.481Z,99334.41
2022-08-17T20:42:28.060Z,99328.97
2022-08-17T20:44:58.886Z,99328.72
2022-08-17T20:50:12.399Z,99319.53
2022-08-17T20:52:47.043Z,99328.44
2022-08-17T20:55:34.091Z,99320.78
2022-08-17T20:58:23.205Z,99322.91
2022-08-17T21:03:48.009Z,99324.25
2022-08-17T21:06:22.855Z,99326.28
2022-08-17T21:08:54.633Z,99323.19
2022-08-17T21:12:01.552Z,99322.16
2022-08-17T21:14:38.166Z,99325.34
2022-08-17T21:17:17.825Z,99332.59
2022-08-17T21:20:11.448Z,99323.00
2022-08-17T21:22:43.284Z,99321.84
2022-08-17T21:25:18.712Z,99319.91
2022-08-17T21:27:49.449Z,99328.25
2022-08-17T21:30:21.230Z,99336.56
2022-08-17T21:33:08.698Z,99332.44
2022-08-17T21:36:05.253Z,99344.63
2022-08-17T21:38:39.974Z,99341.25
2022-08-17T21:41:17.830Z,99340.69
2022-08-17T21:43:46.926Z,99338.81
2022-08-17T21:46:31.747Z,99339.59
2022-08-17T21:49:10.867Z,99345.28
2022-08-17T21:51:46.706Z,99346.69
2022-08-17T21:54:20.200Z,99344.41
2022-08-17T21:56:47.934Z,99345.28
2022-08-17T21:59:35.722Z,99349.16
2022-08-17T22:02:03.683Z,99356.75
2022-08-17T22:04:39.134Z,99362.03
2022-08-17T22:07:11.935Z,99363.72
2022-08-17T22:09:44.973Z,99370.88
2022-08-17T22:12:16.779Z,99375.97
2022-08-17T22:15:06.070Z,99372.56
2022-08-17T22:20:17.024Z,99375.56
2022-08-17T22:23:12.896Z,99392.53
2022-08-17T22:25:56.706Z,99380.06
2022-08-17T22:28:54.562Z,99380.12
2022-08-17T22:31:29.377Z,99381.34
2022-08-17T22:34:00.361Z,99382.72
2022-08-17T22:36:29.047Z,99390.41
2022-08-17T22:38:58.906Z,99392.97
2022-08-17T22:41:45.430Z,99384.22
2022-08-17T22:44:27.257Z,99390.87
2022-08-17T22:47:11.358Z,99393.97
2022-08-17T22:49:53.557Z,99384.56
2022-08-17T22:52:57.514Z,99393.06
2022-08-17T22:55:46.725Z,99396.47
2022-08-17T22:58:41.197Z,99402.53
2022-08-17T23:01:26.504Z,99401.00
2022-08-17T23:03:57.611Z,99412.81
2022-08-17T23:06:27.175Z,99412.16
2022-08-17T23:08:56.324Z,99406.97
2022-08-17T23:11:39.441Z,99407.63
2022-08-17T23:14:16.034Z,99416.03
2022-08-17T23:16:54.046Z,99420.78
2022-08-17T23:19:21.772Z,99414.37
2022-08-17T23:21:50.487Z,99426.38
2022-08-17T23:24:20.411Z,99429.94
2022-08-17T23:26:48.538Z,99434.66
2022-08-17T23:29:15.823Z,99451.56
2022-08-17T23:31:43.200Z,99442.22
2022-08-17T23:34:11.822Z,99430.97
2022-08-17T23:36:39.335Z,99427.38
2022-08-17T23:39:08.737Z,99429.53
2022-08-17T23:41:38.759Z,99424.47
2022-08-17T23:44:06.330Z,99421.41
2022-08-17T23:46:34.673Z,99413.66
2022-08-17T23:49:03.406Z,99406.25
2022-08-17T23:51:34.652Z,99409.94
2022-08-17T23:54:07.957Z,99409.16
2022-08-17T23:56:42.118Z,99411.00
2022-08-17T23:59:09.447Z,99401.56
